createdAt,value
2019-02-27T00:00:09.121Z,2.70
2019-02-27T00:01:42.068Z,4.27
2019-02-27T00:03:15.949Z,1.73
2019-02-27T00:04:50.117Z,2.07
2019-02-27T00:06:24.272Z,2.07
2019-02-27T00:07:58.467Z,4.07
2019-02-27T00:09:35.354Z,3.43
2019-02-27T00:11:09.980Z,5.13
2019-02-27T00:12:43.850Z,3.33
2019-02-27T00:14:17.770Z,3.10
2019-02-27T00:15:51.982Z,3.67
2019-02-27T00:17:26.818Z,2.50
2019-02-27T00:19:00.815Z,3.80
2019-02-27T00:20:36.671Z,1.60
2019-02-27T00:22:09.028Z,3.00
2019-02-27T00:23:43.237Z,4.00
2019-02-27T00:25:17.529Z,2.00
2019-02-27T00:26:51.245Z,2.27
2019-02-27T00:28:25.436Z,4.13
2019-02-27T00:30:04.656Z,3.60
2019-02-27T00:31:35.408Z,2.40
2019-02-27T00:33:09.514Z,3.70
2019-02-27T00:34:43.425Z,2.73
2019-02-27T00:36:18.049Z,4.97
2019-02-27T00:37:52.636Z,4.07
2019-02-27T00:39:26.356Z,2.33
2019-02-27T00:41:01.278Z,2.20
2019-02-27T00:42:36.287Z,3.50
2019-02-27T00:44:10.223Z,3.33
2019-02-27T00:45:43.947Z,5.40
2019-02-27T00:47:20.187Z,2.10
2019-02-27T00:48:52.166Z,3.90
2019-02-27T00:50:26.421Z,3.63
2019-02-27T00:52:00.421Z,2.50
2019-02-27T00:53:34.548Z,2.73
2019-02-27T00:55:08.755Z,2.37
2019-02-27T00:57:45.517Z,5.00
2019-02-27T00:59:20.460Z,2.67
2019-02-27T01:00:54.246Z,3.80
2019-02-27T01:02:28.180Z,3.70
2019-02-27T01:04:03.296Z,6.63
2019-02-27T01:05:40.969Z,4.53
2019-02-27T01:07:11.202Z,3.47
2019-02-27T01:08:45.409Z,6.40
2019-02-27T01:10:20.232Z,2.67
2019-02-27T01:11:54.236Z,4.00
2019-02-27T01:13:28.900Z,4.17
2019-02-27T01:15:02.479Z,7.87
2019-02-27T01:16:36.454Z,3.27
2019-02-27T01:18:11.280Z,5.27
2019-02-27T01:19:45.682Z,2.83
2019-02-27T01:21:20.108Z,6.00
2019-02-27T01:22:54.047Z,6.27
2019-02-27T01:24:28.162Z,6.10
2019-02-27T01:26:02.315Z,3.07
2019-02-27T01:27:37.890Z,3.73
2019-02-27T01:29:09.394Z,6.57
2019-02-27T01:30:43.526Z,6.77
2019-02-27T01:32:17.614Z,3.90
2019-02-27T01:33:51.641Z,5.57
2019-02-27T01:35:26.661Z,7.90
2019-02-27T01:37:00.774Z,4.27
2019-02-27T01:41:11.636Z,4.00
2019-02-27T01:42:45.869Z,6.30
2019-02-27T01:44:20.386Z,4.20
2019-02-27T01:45:55.041Z,6.57
2019-02-27T01:47:28.802Z,5.83
2019-02-27T01:49:03.315Z,6.70
2019-02-27T01:50:48.629Z,4.50
2019-02-27T01:52:23.000Z,4.30
2019-02-27T01:53:56.990Z,6.33
2019-02-27T01:55:30.994Z,7.30
2019-02-27T01:57:05.034Z,5.40
2019-02-27T01:58:43.433Z,3.23
2019-02-27T02:00:13.336Z,6.53
2019-02-27T02:01:47.646Z,7.67
2019-02-27T02:03:21.725Z,5.30
2019-02-27T02:04:55.863Z,6.33
2019-02-27T02:06:31.941Z,8.57
2019-02-27T02:08:04.728Z,6.13
2019-02-27T02:09:48.090Z,7.07
2019-02-27T02:11:22.012Z,5.40
2019-02-27T02:12:57.454Z,5.93
2019-02-27T02:14:45.179Z,6.27
2019-02-27T02:17:05.070Z,7.27
2019-02-27T02:19:21.969Z,8.63
2019-02-27T02:21:18.924Z,5.17
2019-02-27T02:23:13.994Z,8.77
2019-02-27T02:25:35.476Z,5.93
2019-02-27T02:27:21.623Z,7.77
2019-02-27T02:29:22.247Z,7.17
2019-02-27T02:32:17.515Z,7.67
2019-02-27T02:34:05.196Z,7.83
2019-02-27T02:36:00.171Z,13.23
2019-02-27T02:37:45.757Z,10.13
2019-02-27T02:39:54.167Z,8.67
2019-02-27T02:42:06.452Z,6.77
2019-02-27T02:43:55.864Z,8.53
2019-02-27T02:45:44.077Z,12.40
2019-02-27T02:47:28.124Z,8.70
2019-02-27T02:49:20.450Z,8.50
2019-02-27T02:51:08.694Z,13.37
2019-02-27T02:53:06.046Z,12.27
2019-02-27T02:54:52.645Z,14.30
2019-02-27T02:56:35.055Z,17.90
2019-02-27T02:58:24.031Z,11.93
2019-02-27T03:00:39.093Z,16.63
2019-02-27T03:02:23.540Z,10.30
2019-02-27T03:04:12.453Z,17.17
2019-02-27T03:06:52.616Z,16.30
2019-02-27T03:08:36.077Z,16.13
2019-02-27T03:10:43.056Z,20.77
2019-02-27T03:14:53.332Z,19.37
2019-02-27T03:17:35.096Z,22.07
2019-02-27T03:19:41.201Z,19.73
2019-02-27T03:21:27.509Z,23.10
2019-02-27T03:23:16.691Z,35.70
2019-02-27T03:27:12.753Z,25.30
2019-02-27T03:29:57.718Z,31.73
2019-02-27T03:31:57.703Z,29.50
2019-02-27T03:34:35.634Z,28.87
2019-02-27T03:36:58.698Z,36.90
2019-02-27T03:39:57.787Z,32.50
2019-02-27T03:41:46.203Z,32.80
2019-02-27T03:43:33.958Z,33.03
2019-02-27T03:45:19.316Z,31.20
2019-02-27T03:47:03.465Z,38.20
2019-02-27T03:48:48.929Z,29.87
2019-02-27T03:52:37.814Z,31.57
2019-02-27T03:54:21.295Z,40.33
2019-02-27T03:58:10.118Z,41.23
2019-02-27T04:00:03.359Z,39.40
2019-02-27T04:02:05.891Z,51.07
2019-02-27T04:03:54.197Z,46.23
2019-02-27T04:06:02.590Z,42.47
2019-02-27T04:09:45.090Z,36.17
2019-02-27T04:11:20.138Z,42.50
2019-02-27T04:12:54.188Z,39.87
2019-02-27T04:14:42.379Z,51.53
2019-02-27T04:16:16.465Z,44.20
2019-02-27T04:17:53.113Z,45.60
2019-02-27T04:19:27.364Z,44.53
2019-02-27T04:21:02.593Z,49.57
2019-02-27T04:22:37.599Z,55.47
2019-02-27T04:24:10.702Z,50.13
2019-02-27T04:25:44.998Z,47.53
2019-02-27T04:27:21.234Z,55.67
2019-02-27T04:28:54.134Z,52.47
2019-02-27T04:30:29.607Z,51.70
2019-02-27T04:32:03.516Z,48.73
2019-02-27T04:33:37.708Z,49.30
2019-02-27T04:35:11.509Z,52.17
2019-02-27T04:36:47.160Z,46.87
2019-02-27T04:38:19.543Z,52.37
2019-02-27T04:39:53.520Z,54.97
2019-02-27T04:41:27.830Z,52.13
2019-02-27T04:43:02.732Z,51.07
2019-02-27T04:44:38.887Z,57.07
2019-02-27T04:46:11.786Z,55.90
2019-02-27T04:47:45.263Z,56.93
2019-02-27T04:49:19.387Z,58.60
2019-02-27T04:50:53.494Z,56.13
2019-02-27T04:52:28.322Z,51.30
2019-02-27T04:54:06.357Z,56.53
2019-02-27T04:55:37.037Z,54.33
2019-02-27T04:57:12.075Z,56.60
2019-02-27T04:58:46.126Z,55.30
2019-02-27T05:00:20.680Z,55.30
2019-02-27T05:01:54.821Z,61.20
2019-02-27T05:03:29.627Z,57.40
2019-02-27T05:05:06.238Z,61.60
2019-02-27T05:06:37.945Z,53.97
2019-02-27T05:08:12.011Z,54.33
2019-02-27T05:09:46.455Z,50.97
2019-02-27T05:11:20.256Z,60.07
2019-02-27T05:12:54.475Z,51.77
2019-02-27T05:14:28.492Z,57.33
2019-02-27T05:16:02.896Z,58.10
2019-02-27T05:17:38.228Z,57.83
2019-02-27T05:19:11.930Z,44.37
2019-02-27T05:20:46.143Z,52.70
2019-02-27T05:22:20.456Z,58.77
2019-02-27T05:23:54.355Z,57.77
2019-02-27T05:25:28.355Z,56.47
2019-02-27T05:27:02.451Z,50.97
2019-02-27T05:28:36.763Z,54.80
2019-02-27T05:30:12.301Z,52.53
2019-02-27T05:31:44.786Z,58.70
2019-02-27T05:33:18.993Z,55.00
2019-02-27T05:34:53.308Z,65.87
2019-02-27T05:36:29.032Z,56.50
2019-02-27T05:38:02.479Z,57.30
2019-02-27T05:39:36.430Z,57.30
2019-02-27T05:41:10.863Z,58.47
2019-02-27T05:42:44.882Z,52.10
2019-02-27T05:44:21.425Z,55.17
2019-02-27T05:45:53.398Z,63.93
2019-02-27T05:47:27.596Z,55.50
2019-02-27T05:49:02.351Z,57.27
2019-02-27T05:50:36.389Z,58.63
2019-02-27T05:52:11.856Z,63.00
2019-02-27T05:53:44.741Z,58.17
2019-02-27T05:55:18.548Z,57.90
2019-02-27T05:56:52.534Z,59.07
2019-02-27T05:58:26.654Z,58.83
2019-02-27T06:00:02.773Z,61.40
2019-02-27T06:01:37.737Z,59.03
2019-02-27T06:03:08.974Z,56.70
2019-02-27T06:04:43.184Z,58.73
2019-02-27T06:06:17.393Z,52.57
2019-02-27T06:07:51.557Z,58.20
2019-02-27T06:09:25.513Z,50.70
2019-02-27T06:10:59.515Z,63.60
2019-02-27T06:12:33.822Z,58.97
2019-02-27T06:14:08.339Z,52.63
2019-02-27T06:15:42.775Z,56.53
2019-02-27T06:17:16.672Z,55.47
2019-02-27T06:18:50.876Z,54.70
2019-02-27T06:20:24.785Z,58.37
2019-02-27T06:21:59.695Z,62.10
2019-02-27T06:23:35.414Z,55.30
2019-02-27T06:25:08.217Z,46.97
2019-02-27T06:26:42.343Z,53.33
2019-02-27T06:28:18.499Z,55.10
2019-02-27T06:29:50.743Z,55.20
2019-02-27T06:31:24.956Z,55.43
2019-02-27T06:32:59.364Z,49.73
2019-02-27T06:34:33.371Z,60.50
2019-02-27T06:36:07.922Z,58.20
2019-02-27T06:37:41.466Z,58.93
2019-02-27T06:39:15.592Z,50.07
2019-02-27T06:40:49.473Z,51.17
2019-02-27T06:42:23.668Z,51.37
2019-02-27T06:43:58.917Z,54.43
2019-02-27T06:45:33.897Z,53.27
2019-02-27T06:47:08.082Z,54.87
2019-02-27T06:48:43.472Z,52.23
2019-02-27T06:50:15.989Z,50.80
2019-02-27T06:51:49.879Z,57.20
2019-02-27T06:53:23.885Z,53.23
2019-02-27T06:54:58.202Z,51.97
2019-02-27T06:56:32.125Z,55.30
2019-02-27T06:58:05.991Z,59.20
2019-02-27T06:59:40.010Z,55.30
2019-02-27T07:01:45.059Z,56.93
2019-02-27T07:03:20.554Z,64.37
2019-02-27T07:04:54.783Z,58.93
2019-02-27T07:06:28.595Z,51.33
2019-02-27T07:08:05.094Z,51.40
2019-02-27T07:09:38.552Z,54.80
2019-02-27T07:11:14.272Z,53.77
2019-02-27T07:12:48.106Z,47.87
2019-02-27T07:14:21.990Z,50.37
2019-02-27T07:15:56.134Z,52.37
2019-02-27T07:17:31.721Z,55.33
2019-02-27T07:19:04.067Z,51.93
2019-02-27T07:20:39.242Z,57.63
2019-02-27T07:22:14.066Z,53.13
2019-02-27T07:23:48.104Z,52.47
2019-02-27T07:25:23.415Z,47.83
2019-02-27T07:26:57.515Z,50.37
2019-02-27T07:28:31.523Z,51.47
2019-02-27T07:30:07.460Z,52.33
2019-02-27T07:31:40.974Z,47.57
2019-02-27T07:33:15.873Z,49.47
2019-02-27T07:34:50.408Z,48.47
2019-02-27T07:36:23.895Z,51.40
2019-02-27T07:37:57.785Z,48.50
2019-02-27T07:39:34.144Z,48.30
2019-02-27T07:41:08.675Z,48.77
2019-02-27T07:42:43.303Z,48.30
2019-02-27T07:44:17.668Z,51.53
2019-02-27T07:45:51.613Z,52.50
2019-02-27T07:47:26.436Z,43.30
2019-02-27T07:49:01.555Z,46.43
2019-02-27T07:50:35.879Z,45.17
2019-02-27T07:52:12.972Z,45.30
2019-02-27T07:53:47.600Z,48.47
2019-02-27T07:57:23.870Z,42.87
2019-02-27T07:58:58.374Z,47.00
2019-02-27T08:00:35.334Z,48.60
2019-02-27T08:02:09.696Z,42.43
2019-02-27T08:03:45.546Z,44.30
2019-02-27T08:05:18.484Z,43.03
2019-02-27T08:09:00.581Z,39.70
2019-02-27T08:10:36.996Z,45.40
2019-02-27T08:12:10.585Z,47.27
2019-02-27T08:13:45.571Z,42.73
2019-02-27T08:15:19.358Z,42.03
2019-02-27T08:16:57.105Z,38.67
2019-02-27T08:18:30.143Z,39.13
2019-02-27T08:20:00.670Z,38.60
2019-02-27T08:21:34.672Z,40.00
2019-02-27T08:23:10.726Z,37.03
2019-02-27T08:24:45.551Z,38.10
2019-02-27T08:26:19.863Z,35.73
2019-02-27T08:27:54.402Z,35.40
2019-02-27T08:29:28.905Z,37.00
2019-02-27T08:31:03.532Z,36.33
2019-02-27T08:32:37.187Z,37.17
2019-02-27T08:34:11.215Z,37.00
2019-02-27T08:35:45.307Z,39.57
2019-02-27T08:37:20.307Z,34.13
2019-02-27T08:38:53.644Z,31.70
2019-02-27T08:40:27.623Z,33.43
2019-02-27T08:42:03.597Z,32.80
2019-02-27T08:43:35.981Z,31.20
2019-02-27T08:45:19.001Z,32.37
2019-02-27T08:46:44.483Z,25.70
2019-02-27T08:48:18.076Z,29.33
2019-02-27T08:49:51.470Z,31.87
2019-02-27T08:51:25.362Z,33.03
2019-02-27T08:53:05.319Z,30.60
2019-02-27T08:54:39.216Z,30.77
2019-02-27T08:56:13.306Z,31.20
2019-02-27T08:57:49.635Z,32.60
2019-02-27T08:59:21.646Z,27.87
2019-02-27T09:00:56.160Z,28.03
2019-02-27T09:02:29.979Z,24.13
2019-02-27T09:04:05.967Z,26.97
2019-02-27T09:05:37.843Z,24.67
2019-02-27T09:07:11.769Z,26.40
2019-02-27T09:08:45.749Z,24.30
2019-02-27T09:10:19.061Z,21.10
2019-02-27T09:11:52.964Z,22.13
2019-02-27T09:13:27.576Z,18.37
2019-02-27T09:15:01.564Z,21.40
2019-02-27T09:16:35.795Z,21.40
2019-02-27T09:18:09.804Z,19.93
2019-02-27T09:19:45.552Z,17.90
2019-02-27T09:21:17.993Z,23.07
2019-02-27T09:22:52.221Z,19.33
2019-02-27T09:24:26.408Z,18.17
2019-02-27T09:26:02.489Z,18.13
2019-02-27T09:27:35.316Z,17.50
2019-02-27T09:29:09.057Z,16.33
2019-02-27T09:30:43.275Z,14.77
2019-02-27T09:32:18.082Z,18.63
2019-02-27T09:33:53.319Z,14.87
2019-02-27T09:35:26.102Z,15.07
2019-02-27T09:36:59.865Z,18.77
2019-02-27T09:38:33.905Z,16.27
2019-02-27T09:40:07.922Z,16.40
2019-02-27T09:41:46.092Z,18.87
2019-02-27T09:43:16.062Z,16.17
2019-02-27T09:44:50.022Z,17.93
2019-02-27T09:46:24.100Z,15.63
2019-02-27T09:47:59.999Z,14.90
2019-02-27T09:49:33.154Z,15.10
2019-02-27T09:51:08.424Z,15.33
2019-02-27T09:52:42.531Z,13.70
2019-02-27T09:54:17.144Z,18.23
2019-02-27T09:55:53.306Z,15.47
2019-02-27T09:57:27.067Z,13.10
2019-02-27T09:58:59.311Z,11.50
2019-02-27T10:00:45.397Z,8.27
2019-02-27T10:02:21.234Z,10.10
2019-02-27T10:03:55.256Z,9.43
2019-02-27T10:05:30.278Z,15.00
2019-02-27T10:07:04.410Z,9.07
2019-02-27T10:08:38.513Z,14.50
2019-02-27T10:10:12.627Z,9.67
2019-02-27T10:11:46.848Z,10.50
2019-02-27T10:13:21.518Z,9.00
2019-02-27T10:14:55.574Z,8.13
2019-02-27T10:16:29.526Z,12.37
2019-02-27T10:18:03.368Z,8.53
2019-02-27T10:19:38.408Z,7.07
2019-02-27T10:21:12.735Z,6.27
2019-02-27T10:22:46.521Z,8.03
2019-02-27T10:24:19.381Z,4.80
2019-02-27T10:25:53.252Z,4.97
2019-02-27T10:27:28.850Z,6.07
2019-02-27T10:29:01.617Z,8.67
2019-02-27T10:30:36.542Z,7.00
2019-02-27T10:32:10.248Z,3.77
2019-02-27T10:33:44.245Z,5.73
2019-02-27T10:35:18.148Z,6.17
2019-02-27T10:36:52.111Z,8.27
2019-02-27T10:38:26.772Z,7.77
2019-02-27T10:40:00.247Z,7.47
2019-02-27T10:41:33.958Z,5.53
2019-02-27T10:43:07.684Z,6.03
2019-02-27T10:44:41.660Z,6.33
2019-02-27T10:46:16.602Z,4.13
2019-02-27T10:47:50.876Z,8.10
2019-02-27T10:49:25.611Z,5.87
2019-02-27T10:51:00.535Z,4.03
2019-02-27T10:52:34.655Z,4.90
2019-02-27T10:54:08.861Z,5.13
2019-02-27T10:55:43.349Z,3.80
2019-02-27T10:57:17.321Z,4.23
2019-02-27T10:58:52.352Z,4.30
2019-02-27T11:00:30.243Z,6.73
2019-02-27T11:02:04.216Z,6.10
2019-02-27T11:03:37.388Z,2.33
2019-02-27T11:05:11.506Z,6.80
2019-02-27T11:06:45.727Z,3.77
2019-02-27T11:08:19.882Z,2.77
2019-02-27T11:09:53.073Z,6.63
2019-02-27T11:11:28.041Z,7.43
2019-02-27T11:13:05.618Z,4.97
2019-02-27T11:14:36.457Z,8.43
2019-02-27T11:16:10.245Z,3.13
2019-02-27T11:17:44.251Z,5.20
2019-02-27T11:19:17.267Z,5.63
2019-02-27T11:20:52.074Z,5.17
2019-02-27T11:22:25.859Z,6.03
2019-02-27T11:24:00.106Z,3.53
2019-02-27T11:25:37.353Z,11.63
2019-02-27T11:27:11.296Z,10.53
2019-02-27T11:28:47.645Z,11.63
2019-02-27T11:30:19.440Z,10.07
2019-02-27T11:31:53.380Z,7.33
2019-02-27T11:33:32.725Z,4.67
2019-02-27T11:35:01.710Z,7.07
2019-02-27T11:36:35.023Z,3.73
2019-02-27T11:38:08.255Z,3.73
2019-02-27T11:39:42.407Z,6.97
2019-02-27T11:41:17.085Z,9.67
2019-02-27T11:42:50.742Z,9.63
2019-02-27T11:44:24.799Z,13.70
2019-02-27T11:45:59.320Z,9.80
2019-02-27T11:47:33.426Z,7.90
2019-02-27T11:49:06.426Z,8.53
2019-02-27T11:50:40.311Z,9.67
2019-02-27T11:52:14.170Z,8.57
2019-02-27T11:53:47.968Z,14.87
2019-02-27T11:55:24.444Z,6.57
2019-02-27T11:56:57.864Z,14.13
2019-02-27T11:58:30.845Z,13.80
2019-02-27T12:00:04.950Z,9.63
2019-02-27T12:01:38.788Z,18.03
2019-02-27T12:03:12.968Z,19.00
2019-02-27T12:04:46.966Z,14.13
2019-02-27T12:06:20.985Z,11.20
2019-02-27T12:07:54.750Z,12.20
2019-02-27T12:09:29.809Z,11.33
2019-02-27T12:11:03.844Z,14.30
2019-02-27T12:12:37.994Z,15.37
2019-02-27T12:14:12.100Z,12.33
2019-02-27T12:15:46.235Z,14.33
2019-02-27T12:17:20.174Z,12.83
2019-02-27T12:20:53.215Z,9.23
2019-02-27T12:22:23.820Z,14.20
2019-02-27T12:23:57.540Z,11.63
2019-02-27T12:25:32.410Z,16.50
2019-02-27T12:27:07.241Z,14.17
2019-02-27T12:28:40.059Z,13.43
2019-02-27T12:30:14.183Z,12.87
2019-02-27T12:31:49.109Z,14.77
2019-02-27T12:33:24.118Z,11.97
2019-02-27T12:34:57.097Z,9.27
2019-02-27T12:36:31.120Z,13.30
2019-02-27T12:38:08.190Z,14.67
2019-02-27T12:39:39.344Z,13.17
2019-02-27T12:41:13.453Z,10.43
2019-02-27T12:42:47.425Z,10.60
2019-02-27T12:44:21.557Z,11.27
2019-02-27T12:45:54.327Z,11.77
2019-02-27T12:47:27.978Z,8.33
2019-02-27T12:49:02.121Z,10.13
2019-02-27T12:50:37.045Z,15.57
2019-02-27T12:52:12.109Z,13.90
2019-02-27T12:53:46.296Z,7.37
2019-02-27T12:55:21.433Z,11.27
2019-02-27T12:56:55.340Z,10.27
2019-02-27T12:58:29.442Z,10.67
2019-02-27T13:00:05.786Z,12.67
2019-02-27T13:01:38.581Z,13.00
2019-02-27T13:03:12.497Z,14.43
2019-02-27T13:04:46.512Z,12.73
2019-02-27T13:06:21.409Z,10.67
2019-02-27T13:07:55.703Z,13.10
2019-02-27T13:09:30.859Z,14.73
2019-02-27T13:11:05.252Z,11.80
2019-02-27T13:12:38.876Z,11.43
2019-02-27T13:14:12.615Z,10.67
2019-02-27T13:15:47.582Z,14.03
2019-02-27T13:17:22.241Z,20.33
2019-02-27T13:18:55.887Z,17.33
2019-02-27T13:20:33.599Z,13.63
2019-02-27T13:22:08.243Z,15.57
2019-02-27T13:23:43.960Z,17.20
2019-02-27T13:25:18.253Z,13.93
2019-02-27T13:26:52.494Z,15.90
2019-02-27T13:28:26.783Z,10.87
2019-02-27T13:30:08.387Z,12.50
2019-02-27T13:31:33.778Z,13.80
2019-02-27T13:33:07.682Z,11.80
2019-02-27T13:34:41.362Z,15.30
2019-02-27T13:36:15.384Z,18.77
2019-02-27T13:37:49.184Z,13.10
2019-02-27T13:39:25.589Z,15.70
2019-02-27T13:40:58.011Z,13.50
2019-02-27T13:42:32.816Z,13.97
2019-02-27T13:44:07.971Z,12.57
2019-02-27T13:45:41.869Z,14.87
2019-02-27T13:47:50.167Z,12.20
2019-02-27T13:49:25.837Z,12.83
2019-02-27T13:52:49.654Z,15.47
2019-02-27T13:54:21.986Z,13.20
2019-02-27T13:55:54.738Z,13.80
2019-02-27T13:57:28.651Z,12.43
2019-02-27T13:59:03.110Z,11.83
2019-02-27T14:00:42.058Z,17.90
2019-02-27T14:02:16.402Z,24.67
2019-02-27T14:03:50.483Z,9.30
2019-02-27T14:05:24.503Z,16.90
2019-02-27T14:06:59.333Z,14.43
2019-02-27T14:08:35.201Z,13.87
2019-02-27T14:10:10.741Z,13.37
2019-02-27T14:11:49.005Z,10.97
2019-02-27T14:13:25.018Z,18.10
2019-02-27T14:14:58.642Z,13.03
2019-02-27T14:16:34.723Z,13.10
2019-02-27T14:18:06.745Z,10.57
2019-02-27T14:19:39.664Z,12.70
2019-02-27T14:21:14.852Z,13.57
2019-02-27T14:22:46.954Z,9.90
2019-02-27T14:24:21.361Z,13.77
2019-02-27T14:25:54.189Z,13.13
2019-02-27T14:27:29.353Z,11.27
2019-02-27T14:29:04.205Z,7.87
2019-02-27T14:30:41.703Z,10.13
2019-02-27T14:32:15.902Z,12.50
2019-02-27T14:33:51.173Z,13.20
2019-02-27T14:35:24.011Z,7.93
2019-02-27T14:36:58.015Z,12.67
2019-02-27T14:38:32.134Z,10.43
2019-02-27T14:40:06.212Z,9.83
2019-02-27T14:41:40.234Z,21.27
2019-02-27T14:43:13.199Z,13.37
2019-02-27T14:44:46.942Z,11.33
2019-02-27T14:46:22.231Z,11.50
2019-02-27T14:47:56.585Z,9.30
2019-02-27T14:49:30.277Z,8.93
2019-02-27T14:51:07.321Z,8.37
2019-02-27T14:52:39.089Z,11.03
2019-02-27T14:54:12.169Z,11.60
2019-02-27T14:55:46.386Z,9.93
2019-02-27T14:57:20.652Z,16.97
2019-02-27T14:58:56.595Z,8.90
2019-02-27T15:00:31.550Z,10.10
2019-02-27T15:02:05.777Z,14.57
2019-02-27T15:03:39.777Z,8.37
2019-02-27T15:05:14.104Z,8.20
2019-02-27T15:06:50.358Z,7.80
2019-02-27T15:08:25.171Z,9.13
2019-02-27T15:09:57.960Z,6.43
2019-02-27T15:11:32.371Z,11.40
2019-02-27T15:13:06.415Z,11.80
2019-02-27T15:14:40.153Z,9.97
2019-02-27T15:16:15.422Z,8.47
2019-02-27T15:17:48.100Z,6.40
2019-02-27T15:19:21.105Z,10.13
2019-02-27T15:20:56.302Z,10.43
2019-02-27T15:22:30.302Z,8.77
2019-02-27T15:24:06.355Z,9.27
2019-02-27T15:25:43.086Z,8.87
2019-02-27T15:27:15.092Z,9.43
2019-02-27T15:28:49.143Z,12.67
2019-02-27T15:30:23.832Z,14.27
2019-02-27T15:31:57.913Z,10.17
2019-02-27T15:33:31.889Z,7.13
2019-02-27T15:35:07.047Z,12.43
2019-02-27T15:36:41.261Z,8.43
2019-02-27T15:38:15.576Z,6.93
2019-02-27T15:39:52.003Z,6.37
2019-02-27T15:41:24.747Z,6.97
2019-02-27T15:42:58.518Z,15.17
2019-02-27T15:44:34.567Z,14.00
2019-02-27T15:46:06.717Z,15.87
2019-02-27T15:47:41.503Z,10.93
2019-02-27T15:49:15.908Z,12.47
2019-02-27T15:50:49.659Z,11.20
2019-02-27T15:52:23.864Z,15.40
2019-02-27T15:53:57.952Z,8.90
2019-02-27T15:55:35.097Z,7.03
2019-02-27T15:57:07.822Z,7.77
2019-02-27T15:58:41.931Z,9.17
2019-02-27T16:00:18.475Z,6.73
2019-02-27T16:01:50.346Z,8.73
2019-02-27T16:03:24.470Z,11.40
2019-02-27T16:04:58.263Z,5.30
2019-02-27T16:06:32.290Z,7.90
2019-02-27T16:08:06.892Z,6.20
2019-02-27T16:09:41.601Z,11.47
2019-02-27T16:11:16.545Z,4.37
2019-02-27T16:12:49.818Z,11.67
2019-02-27T16:14:24.537Z,13.93
2019-02-27T16:15:58.643Z,13.63
2019-02-27T16:17:32.443Z,9.90
2019-02-27T16:19:07.987Z,4.37
2019-02-27T16:20:41.687Z,5.17
2019-02-27T16:22:16.600Z,4.80
2019-02-27T16:23:50.614Z,6.50
2019-02-27T16:25:25.721Z,10.17
2019-02-27T16:27:01.331Z,10.37
2019-02-27T16:28:34.095Z,7.07
2019-02-27T16:30:09.706Z,8.33
2019-02-27T16:31:43.856Z,5.63
2019-02-27T16:33:23.523Z,8.70
2019-02-27T16:34:52.513Z,5.17
2019-02-27T16:36:35.767Z,5.17
2019-02-27T16:38:01.010Z,4.57
2019-02-27T16:39:41.018Z,3.73
2019-02-27T16:41:09.897Z,6.03
2019-02-27T16:42:45.131Z,6.30
2019-02-27T16:44:22.049Z,7.10
2019-02-27T16:45:53.751Z,7.70
2019-02-27T16:47:29.595Z,3.40
2019-02-27T16:49:04.110Z,11.27
2019-02-27T16:50:40.242Z,4.90
2019-02-27T16:52:14.273Z,3.37
2019-02-27T16:53:47.182Z,4.27
2019-02-27T16:55:22.366Z,5.83
2019-02-27T16:56:57.957Z,8.80
2019-02-27T16:58:32.957Z,7.73
2019-02-27T17:00:04.586Z,4.37
2019-02-27T17:01:38.882Z,8.23
2019-02-27T17:03:14.047Z,8.27
2019-02-27T17:04:48.662Z,5.07
2019-02-27T17:06:22.847Z,5.53
2019-02-27T17:08:00.217Z,7.20
2019-02-27T17:09:33.546Z,5.93
2019-02-27T17:11:07.221Z,6.43
2019-02-27T17:12:41.561Z,6.07
2019-02-27T17:14:15.070Z,8.20
2019-02-27T17:15:49.240Z,6.43
2019-02-27T17:17:23.244Z,6.47
2019-02-27T17:18:59.142Z,9.93
2019-02-27T17:20:34.230Z,5.23
2019-02-27T17:22:08.167Z,4.63
2019-02-27T17:23:45.410Z,5.73
2019-02-27T17:25:16.451Z,6.43
2019-02-27T17:26:51.536Z,6.33
2019-02-27T17:28:25.393Z,13.97
2019-02-27T17:30:00.069Z,7.23
2019-02-27T17:31:33.507Z,10.47
2019-02-27T17:33:08.414Z,10.03
2019-02-27T17:34:42.434Z,24.37
2019-02-27T17:36:18.191Z,8.87
2019-02-27T17:37:52.477Z,4.07
2019-02-27T17:39:29.869Z,5.20
2019-02-27T17:41:00.895Z,3.50
2019-02-27T17:42:34.813Z,4.23
2019-02-27T17:44:09.125Z,4.60
2019-02-27T17:46:14.362Z,2.90
2019-02-27T17:47:49.018Z,5.57
2019-02-27T17:49:25.387Z,4.80
2019-02-27T17:50:57.319Z,5.17
2019-02-27T17:52:32.311Z,6.07
2019-02-27T17:54:06.130Z,3.93
2019-02-27T17:55:41.748Z,3.93
2019-02-27T17:57:13.910Z,3.47
2019-02-27T17:58:48.037Z,4.97
2019-02-27T18:00:23.987Z,3.57
2019-02-27T18:01:58.754Z,7.90
2019-02-27T18:03:32.421Z,11.70
2019-02-27T18:05:09.312Z,3.83
2019-02-27T18:06:44.328Z,4.07
2019-02-27T18:08:17.297Z,5.47
2019-02-27T18:09:51.737Z,6.73
2019-02-27T18:11:26.701Z,25.93
2019-02-27T18:13:01.425Z,5.43
2019-02-27T18:14:35.767Z,3.00
2019-02-27T18:16:09.900Z,3.83
2019-02-27T18:17:42.924Z,3.33
2019-02-27T18:19:17.259Z,4.00
2019-02-27T18:20:50.860Z,3.07
2019-02-27T18:22:24.746Z,7.50
2019-02-27T18:23:58.892Z,6.77
2019-02-27T18:25:32.776Z,7.43
2019-02-27T18:27:07.568Z,6.43
2019-02-27T18:28:41.706Z,8.97
2019-02-27T18:30:18.954Z,3.50
2019-02-27T18:31:50.611Z,10.43
2019-02-27T18:33:24.743Z,6.00
2019-02-27T18:34:58.953Z,6.53
2019-02-27T18:36:42.411Z,5.97
2019-02-27T18:38:07.574Z,4.00
2019-02-27T18:39:41.566Z,5.70
2019-02-27T18:41:15.693Z,6.60
2019-02-27T18:42:55.355Z,4.97
2019-02-27T18:44:24.204Z,7.47
2019-02-27T18:45:58.105Z,6.03
2019-02-27T18:47:32.104Z,9.97
2019-02-27T18:49:05.425Z,7.43
2019-02-27T18:50:39.513Z,5.57
2019-02-27T18:52:21.271Z,7.57
2019-02-27T18:53:48.591Z,9.23
2019-02-27T18:55:22.040Z,8.30
2019-02-27T18:56:56.136Z,9.03
2019-02-27T18:58:31.791Z,6.67
2019-02-27T19:00:06.623Z,6.27
2019-02-27T19:01:41.401Z,8.90
2019-02-27T19:03:16.180Z,8.17
2019-02-27T19:04:50.786Z,6.93
2019-02-27T19:06:24.886Z,7.70
2019-02-27T19:07:59.927Z,11.00
2019-02-27T19:09:34.581Z,9.13
2019-02-27T19:11:08.645Z,3.40
2019-02-27T19:12:43.780Z,3.83
2019-02-27T19:14:19.017Z,7.77
2019-02-27T19:15:53.021Z,12.20
2019-02-27T19:17:31.407Z,4.83
2019-02-27T19:19:01.326Z,7.43
2019-02-27T19:20:37.888Z,5.13
2019-02-27T19:22:11.710Z,3.73
2019-02-27T19:23:44.894Z,3.40
2019-02-27T19:25:18.760Z,4.60
2019-02-27T19:26:53.129Z,3.27
2019-02-27T19:28:27.918Z,3.87
2019-02-27T19:30:06.364Z,3.10
2019-02-27T19:31:36.943Z,11.33
2019-02-27T19:33:11.702Z,4.80
2019-02-27T19:34:47.997Z,5.03
2019-02-27T19:36:21.524Z,7.27
2019-02-27T19:37:56.202Z,4.70
2019-02-27T19:39:30.338Z,6.20
2019-02-27T19:41:04.743Z,7.90
2019-02-27T19:42:38.158Z,4.67
2019-02-27T19:44:11.337Z,5.07
2019-02-27T19:45:45.351Z,6.80
2019-02-27T19:47:19.385Z,5.30
2019-02-27T19:48:53.559Z,2.93
2019-02-27T19:50:28.973Z,7.30
2019-02-27T19:52:03.942Z,6.43
2019-02-27T19:53:39.569Z,2.50
2019-02-27T19:55:12.140Z,3.40
2019-02-27T19:56:47.897Z,2.50
2019-02-27T19:58:21.892Z,5.67
2019-02-27T19:59:58.825Z,2.83
2019-02-27T20:01:30.310Z,3.57
2019-02-27T20:03:04.830Z,4.10
2019-02-27T20:04:42.859Z,4.03
2019-02-27T20:06:13.051Z,2.53
2019-02-27T20:07:46.945Z,4.03
2019-02-27T20:09:21.908Z,2.67
2019-02-27T20:10:55.858Z,2.50
2019-02-27T20:12:30.167Z,3.40
2019-02-27T20:14:07.068Z,2.50
2019-02-27T20:15:45.807Z,4.60
2019-02-27T20:17:19.392Z,4.13
2019-02-27T20:18:55.292Z,2.90
2019-02-27T20:20:30.986Z,2.43
2019-02-27T20:22:05.379Z,9.20
2019-02-27T20:23:39.470Z,2.77
2019-02-27T20:25:14.472Z,7.03
2019-02-27T20:26:51.461Z,5.07
2019-02-27T20:28:25.104Z,2.53
2019-02-27T20:30:00.947Z,2.60
2019-02-27T20:31:35.579Z,3.27
2019-02-27T20:33:09.765Z,4.73
2019-02-27T20:34:45.944Z,3.60
2019-02-27T20:36:18.278Z,3.73
2019-02-27T20:37:52.491Z,9.60
2019-02-27T20:39:27.219Z,4.00
2019-02-27T20:41:01.405Z,5.13
2019-02-27T20:42:36.248Z,4.80
2019-02-27T20:44:10.950Z,3.27
2019-02-27T20:45:45.995Z,5.03
2019-02-27T20:47:21.835Z,6.80
2019-02-27T20:48:56.011Z,3.40
2019-02-27T20:50:34.999Z,4.17
2019-02-27T20:52:06.933Z,3.57
2019-02-27T20:53:41.006Z,3.07
2019-02-27T20:55:15.455Z,5.10
2019-02-27T20:56:55.538Z,3.83
2019-02-27T20:58:24.588Z,4.03
2019-02-27T21:00:02.167Z,7.30
2019-02-27T21:01:33.909Z,4.33
2019-02-27T21:03:08.525Z,3.93
2019-02-27T21:04:42.651Z,2.77
2019-02-27T21:06:17.066Z,2.63
2019-02-27T21:07:51.974Z,3.60
2019-02-27T21:09:26.003Z,3.87
2019-02-27T21:11:00.005Z,3.73
2019-02-27T21:12:33.904Z,6.20
2019-02-27T21:14:07.792Z,6.27
2019-02-27T21:15:41.814Z,3.47
2019-02-27T21:17:16.473Z,6.23
2019-02-27T21:18:49.402Z,4.00
2019-02-27T21:20:24.627Z,3.33
2019-02-27T21:21:58.757Z,3.20